createdAt,value
2018-07-11T00:04:29.162Z,23.62
2018-07-11T00:09:32.638Z,23.61
2018-07-11T00:14:36.113Z,23.60
2018-07-11T00:19:39.577Z,23.56
2018-07-11T00:24:43.006Z,23.54
2018-07-11T00:29:46.857Z,23.54
2018-07-11T00:34:50.297Z,23.52
2018-07-11T00:39:53.816Z,23.52
2018-07-11T00:44:57.508Z,23.48
2018-07-11T00:50:01.376Z,23.48
2018-07-11T00:55:04.931Z,23.45
2018-07-11T01:00:08.537Z,23.43
2018-07-11T01:05:12.098Z,23.41
2018-07-11T01:10:15.637Z,23.40
2018-07-11T01:15:19.474Z,23.37
2018-07-11T01:20:23.026Z,23.36
2018-07-11T01:25:26.537Z,23.36
2018-07-11T01:30:30.069Z,23.35
2018-07-11T01:35:33.673Z,23.34
2018-07-11T01:40:37.153Z,23.31
2018-07-11T01:45:40.714Z,23.30
2018-07-11T01:50:44.254Z,23.28
2018-07-11T01:55:47.710Z,23.27
2018-07-11T02:00:51.448Z,23.24
2018-07-11T02:05:55.483Z,23.24
2018-07-11T02:10:59.497Z,23.22
2018-07-11T02:16:03.023Z,23.23
2018-07-11T02:21:07.336Z,23.22
2018-07-11T02:26:10.873Z,23.19
2018-07-11T02:31:14.337Z,23.18
2018-07-11T02:36:17.746Z,23.17
2018-07-11T02:41:21.493Z,23.17
2018-07-11T02:46:30.143Z,23.14
2018-07-11T02:51:33.577Z,23.16
2018-07-11T02:56:37.171Z,23.15
2018-07-11T03:01:40.665Z,23.14
2018-07-11T03:06:44.286Z,23.12
2018-07-11T03:11:48.035Z,23.11
2018-07-11T03:16:51.788Z,23.11
2018-07-11T03:21:55.374Z,23.10
2018-07-11T03:26:59.187Z,23.10
2018-07-11T03:32:02.730Z,23.09
2018-07-11T03:37:06.606Z,23.08
2018-07-11T03:42:10.169Z,23.08
2018-07-11T03:47:13.871Z,23.08
2018-07-11T03:52:17.469Z,23.08
2018-07-11T03:57:21.004Z,23.10
2018-07-11T04:02:24.609Z,23.11
2018-07-11T04:07:28.053Z,23.10
2018-07-11T04:12:31.540Z,22.79
2018-07-11T04:17:35.063Z,22.53
2018-07-11T04:22:38.602Z,22.49
2018-07-11T04:27:42.093Z,22.45
2018-07-11T04:32:45.845Z,22.34
2018-07-11T04:37:49.322Z,22.31
2018-07-11T04:42:52.812Z,22.27
2018-07-11T04:47:56.260Z,22.26
2018-07-11T04:53:02.483Z,22.35
2018-07-11T04:58:06.388Z,22.33
2018-07-11T05:03:09.852Z,22.27
2018-07-11T05:08:13.399Z,22.22
2018-07-11T05:13:17.079Z,22.22
2018-07-11T05:18:20.545Z,22.21
2018-07-11T05:23:23.960Z,22.20
2018-07-11T05:28:27.618Z,22.15
2018-07-11T05:33:31.078Z,22.11
2018-07-11T05:38:34.557Z,22.10
2018-07-11T05:43:38.305Z,22.13
2018-07-11T05:48:41.917Z,22.11
2018-07-11T05:53:45.639Z,22.13
2018-07-11T05:58:49.658Z,22.15
2018-07-11T06:03:53.113Z,22.17
2018-07-11T06:08:56.699Z,22.15
2018-07-11T06:14:00.398Z,22.15
2018-07-11T06:19:03.869Z,22.15
2018-07-11T06:24:07.728Z,22.23
2018-07-11T06:29:11.258Z,22.39
2018-07-11T06:34:14.689Z,22.48
2018-07-11T06:39:18.218Z,22.54
2018-07-11T06:44:21.630Z,22.59
2018-07-11T06:49:25.325Z,22.63
2018-07-11T06:54:28.842Z,22.68
2018-07-11T06:59:32.980Z,22.72
2018-07-11T07:04:36.507Z,22.76
2018-07-11T07:09:40.281Z,22.79
2018-07-11T07:14:43.927Z,22.82
2018-07-11T07:19:47.515Z,22.85
2018-07-11T07:24:51.150Z,22.88
2018-07-11T07:29:54.613Z,22.92
2018-07-11T07:34:58.104Z,22.96
2018-07-11T07:40:01.647Z,23.02
2018-07-11T07:45:05.149Z,23.06
2018-07-11T07:50:08.719Z,23.10
2018-07-11T07:55:12.557Z,23.14
2018-07-11T08:00:16.171Z,23.18
2018-07-11T08:05:19.667Z,23.24
2018-07-11T08:10:23.204Z,23.31
2018-07-11T08:15:26.718Z,23.28
2018-07-11T08:20:30.605Z,23.28
2018-07-11T08:25:45.833Z,23.31
2018-07-11T08:31:02.126Z,23.33
2018-07-11T08:38:27.742Z,23.36
2018-07-11T08:44:47.002Z,23.37
2018-07-11T08:50:02.479Z,23.40
2018-07-11T08:55:17.854Z,23.41
2018-07-11T09:01:05.673Z,23.43
2018-07-11T09:06:27.511Z,23.44
2018-07-11T09:12:14.778Z,23.46
2018-07-11T09:18:29.890Z,23.49
2018-07-11T09:24:45.415Z,23.50
2018-07-11T09:29:49.305Z,23.52
2018-07-11T09:34:52.730Z,23.53
2018-07-11T09:39:56.184Z,23.52
2018-07-11T09:44:59.913Z,23.38
2018-07-11T09:50:03.370Z,23.27
2018-07-11T09:55:07.427Z,23.22
2018-07-11T10:00:16.144Z,23.19
2018-07-11T10:05:19.621Z,23.26
2018-07-11T10:10:23.046Z,23.18
2018-07-11T10:15:26.463Z,23.17
2018-07-11T10:20:29.894Z,23.24
2018-07-11T10:25:33.481Z,23.16
2018-07-11T10:30:37.355Z,23.16
2018-07-11T10:35:41.292Z,22.88
2018-07-11T10:40:44.713Z,22.85
2018-07-11T10:45:48.161Z,22.87
2018-07-11T10:50:51.620Z,23.01
2018-07-11T10:55:55.440Z,23.08
2018-07-11T11:01:05.699Z,23.05
2018-07-11T11:06:03.099Z,23.01
2018-07-11T11:11:06.699Z,23.06
2018-07-11T11:16:10.218Z,23.10
2018-07-11T11:21:13.822Z,23.03
2018-07-11T11:26:17.355Z,22.99
2018-07-11T11:31:20.805Z,23.13
2018-07-11T11:36:24.375Z,23.11
2018-07-11T11:41:28.160Z,23.19
2018-07-11T11:46:31.545Z,23.06
2018-07-11T11:51:35.121Z,23.16
2018-07-11T11:56:38.552Z,23.18
2018-07-11T12:01:42.100Z,23.24
2018-07-11T12:06:45.676Z,23.24
2018-07-11T12:11:49.152Z,23.29
2018-07-11T12:16:52.859Z,23.27
2018-07-11T12:21:56.427Z,23.33
2018-07-11T12:26:59.925Z,23.35
2018-07-11T12:32:03.357Z,23.35
2018-07-11T12:37:06.761Z,23.35
2018-07-11T12:42:10.280Z,23.34
2018-07-11T12:47:19.022Z,23.36
2018-07-11T12:52:22.578Z,23.38
2018-07-11T12:57:26.290Z,23.40
2018-07-11T13:02:29.833Z,23.42
2018-07-11T13:07:33.385Z,23.45
2018-07-11T13:12:37.086Z,23.48
2018-07-11T13:17:40.565Z,23.51
2018-07-11T13:22:44.053Z,23.50
2018-07-11T13:27:47.626Z,23.53
2018-07-11T13:32:51.063Z,23.55
2018-07-11T13:37:54.662Z,23.59
2018-07-11T13:42:58.330Z,23.60
2018-07-11T13:48:02.179Z,23.60
2018-07-11T13:53:05.708Z,23.60
2018-07-11T13:58:10.078Z,23.62
2018-07-11T14:03:13.498Z,23.65
2018-07-11T14:08:16.982Z,23.65
2018-07-11T14:13:20.463Z,23.67
2018-07-11T14:18:24.004Z,23.67
2018-07-11T14:23:35.892Z,23.68
2018-07-11T14:28:47.266Z,23.69
2018-07-11T14:33:50.823Z,23.69
2018-07-11T14:38:54.418Z,23.67
2018-07-11T14:43:58.505Z,23.64
2018-07-11T14:49:02.082Z,23.61
2018-07-11T14:54:06.155Z,23.62
2018-07-11T14:59:09.582Z,23.62
2018-07-11T15:04:13.058Z,23.61
2018-07-11T15:09:16.915Z,23.63
2018-07-11T15:14:20.037Z,23.63
2018-07-11T15:19:23.531Z,23.60
2018-07-11T15:24:27.182Z,23.61
2018-07-11T15:29:31.043Z,23.59
2018-07-11T15:34:34.555Z,23.59
2018-07-11T15:39:38.394Z,23.59
2018-07-11T15:44:42.633Z,23.61
2018-07-11T15:49:46.114Z,23.65
2018-07-11T15:54:49.974Z,23.64
2018-07-11T16:00:01.587Z,23.62
2018-07-11T16:05:05.345Z,23.66
2018-07-11T16:10:08.801Z,23.67
2018-07-11T16:15:12.485Z,23.70
2018-07-11T16:20:15.918Z,23.71
2018-07-11T16:25:19.860Z,23.70
2018-07-11T16:30:23.437Z,23.74
2018-07-11T16:35:26.953Z,23.77
2018-07-11T16:40:31.533Z,23.77
2018-07-11T16:45:34.962Z,23.79
2018-07-11T16:50:38.461Z,23.77
2018-07-11T16:55:41.882Z,23.77
2018-07-11T17:00:45.550Z,23.78
2018-07-11T17:05:57.818Z,23.79
2018-07-11T17:11:22.763Z,23.78
2018-07-11T17:16:32.817Z,23.78
2018-07-11T17:21:43.954Z,23.80
2018-07-11T17:26:48.749Z,23.82
2018-07-11T17:31:55.166Z,23.81
2018-07-11T17:37:01.934Z,23.80
2018-07-11T17:42:06.561Z,23.82
2018-07-11T17:47:10.050Z,23.82
2018-07-11T17:52:14.113Z,23.83
2018-07-11T17:57:23.641Z,23.84
2018-07-11T18:02:32.001Z,23.84
2018-07-11T18:07:49.961Z,23.86
2018-07-11T18:12:57.110Z,23.87
2018-07-11T18:18:11.807Z,23.91
2018-07-11T18:25:33.871Z,24.04
2018-07-11T18:32:50.377Z,24.04
2018-07-11T18:37:59.480Z,24.07
2018-07-11T18:43:19.057Z,24.09
2018-07-11T18:48:34.222Z,24.10
2018-07-11T18:54:16.249Z,24.09
2018-07-11T19:01:34.934Z,24.10
2018-07-11T19:08:51.438Z,24.05
2018-07-11T19:14:00.034Z,24.02
2018-07-11T19:19:09.347Z,23.98
2018-07-11T19:24:20.826Z,23.98
2018-07-11T19:29:50.273Z,23.95
2018-07-11T19:35:07.926Z,23.92
2018-07-11T19:40:36.265Z,23.92
2018-07-11T19:46:03.871Z,23.92
2018-07-11T19:51:15.260Z,23.92
2018-07-11T19:56:28.125Z,23.92
2018-07-11T20:01:31.591Z,23.92
2018-07-11T20:06:35.074Z,23.90
2018-07-11T20:11:38.788Z,23.90
2018-07-11T20:16:42.390Z,23.88
2018-07-11T20:21:45.892Z,23.89
2018-07-11T20:26:49.637Z,23.85
2018-07-11T20:31:53.832Z,23.83
2018-07-11T20:36:58.101Z,23.85
2018-07-11T20:42:02.356Z,23.84
2018-07-11T20:47:05.768Z,23.83
2018-07-11T20:52:09.285Z,23.80
2018-07-11T20:57:12.756Z,23.80
2018-07-11T21:02:27.469Z,23.81
2018-07-11T21:07:53.891Z,23.81
2018-07-11T21:13:19.994Z,23.81
2018-07-11T21:19:09.245Z,23.75
2018-07-11T21:24:13.541Z,23.76
2018-07-11T21:29:16.992Z,23.76
2018-07-11T21:34:20.589Z,23.75
2018-07-11T21:39:24.107Z,23.74
2018-07-11T21:44:27.632Z,23.74
2018-07-11T21:49:31.138Z,23.71
2018-07-11T21:54:34.868Z,23.69
2018-07-11T21:59:38.330Z,23.68
2018-07-11T22:04:41.799Z,23.68
2018-07-11T22:09:45.359Z,23.67
2018-07-11T22:14:48.832Z,23.66
2018-07-11T22:19:51.211Z,23.68
2018-07-11T22:24:53.568Z,23.62
2018-07-11T22:29:56.004Z,23.64
2018-07-11T22:34:58.582Z,23.62
2018-07-11T22:40:00.938Z,23.63
2018-07-11T22:45:03.356Z,23.61
2018-07-11T22:50:06.351Z,23.58
2018-07-11T22:55:08.777Z,23.55
2018-07-11T23:00:11.323Z,23.56
2018-07-11T23:05:13.665Z,23.53
2018-07-11T23:10:16.038Z,23.52
2018-07-11T23:15:18.512Z,23.53
2018-07-11T23:20:20.908Z,23.52
2018-07-11T23:25:23.266Z,23.53
2018-07-11T23:30:25.640Z,23.50
2018-07-11T23:35:28.017Z,23.47
2018-07-11T23:40:30.410Z,23.47
2018-07-11T23:45:33.031Z,23.48
2018-07-11T23:50:35.545Z,23.48
2018-07-11T23:55:37.930Z,23.48
